Time;durP1;ratioP1;P1;durP2;ratioP2;P2;SDS_P1;SDS_P2;PMS_P1;PMS_P2;Temp;Humidity;BMP_temperature;BMP_pressure;BME280_temperature;BME280_humidity;BME280_pressure;Samples;Min_cycle;Max_cycle;Signal;HPM_P1;HPM_P2
2021/03/01 00:00:30;;;;;;;3.45;1.30;;;;;;;;;;5032499;28;21897;-57
2021/03/01 00:02:56;;;;;;;4.70;1.50;;;;;;;;;;5033130;28;20079;-58
2021/03/01 00:05:23;;;;;;;3.85;1.55;;;;;;;;;;5029762;28;20041;-59
2021/03/01 00:07:49;;;;;;;5.97;1.70;;;;;;;;;;5007450;28;20072;-58
2021/03/01 00:10:19;;;;;;;5.80;1.60;;;;;;;;;;4997647;28;20044;-61
2021/03/01 00:12:45;;;;;;;6.03;2.13;;;;;;;;;;4995634;28;20123;-60
2021/03/01 00:15:19;;;;;;;3.97;1.70;;;;;;;;;;5017333;28;20041;-60
2021/03/01 00:17:46;;;;;;;4.78;1.80;;;;;;;;;;5013636;28;20103;-61
2021/03/01 00:20:12;;;;;;;5.38;1.65;;;;;;;;;;5015541;28;20065;-59
2021/03/01 00:22:44;;;;;;;5.25;2.05;;;;;;;;;;4988503;28;20099;-59
2021/03/01 00:25:11;;;;;;;7.13;1.80;;;;;;;;;;5016517;28;20085;-60
2021/03/01 00:27:43;;;;;;;7.63;2.05;;;;;;;;;;5004599;28;20898;-59
2021/03/01 00:30:10;;;;;;;5.68;1.95;;;;;;;;;;5044568;28;20163;-62
2021/03/01 00:32:44;;;;;;;4.90;1.77;;;;;;;;;;5027026;28;20048;-60
2021/03/01 00:35:22;;;;;;;8.55;2.25;;;;;;;;;;5032767;28;20037;-60
2021/03/01 00:37:56;;;;;;;4.55;1.85;;;;;;;;;;5014191;28;20084;-59
2021/03/01 00:40:23;;;;;;;7.18;2.30;;;;;;;;;;5016584;28;20048;-60
2021/03/01 00:42:49;;;;;;;4.43;1.83;;;;;;;;;;5031360;28;20041;-59
2021/03/01 00:45:18;;;;;;;7.60;2.10;;;;;;;;;;5016799;28;20068;-58
2021/03/01 00:47:44;;;;;;;7.88;1.80;;;;;;;;;;5029540;28;20142;-60
2021/03/01 00:50:14;;;;;;;6.32;1.80;;;;;;;;;;5024646;28;20440;-60
2021/03/01 00:52:47;;;;;;;5.30;1.88;;;;;;;;;;5028171;28;20056;-59
2021/03/01 00:55:14;;;;;;;8.35;2.60;;;;;;;;;;5028155;28;20045;-59
2021/03/01 00:57:43;;;;;;;4.55;2.13;;;;;;;;;;5029981;28;20040;-59
2021/03/01 01:00:11;;;;;;;4.75;1.90;;;;;;;;;;5031858;28;20033;-58
2021/03/01 01:05:52;;;;;;;5.38;2.00;;;;;;;;;;4981796;28;20133;-59
2021/03/01 01:08:21;;;;;;;10.52;2.58;;;;;;;;;;4986899;28;20130;-58
2021/03/01 01:10:51;;;;;;;7.82;2.58;;;;;;;;;;4952376;28;20054;-59
2021/03/01 01:13:17;;;;;;;8.07;2.78;;;;;;;;;;4944757;28;20054;-59
2021/03/01 01:15:46;;;;;;;5.32;2.20;;;;;;;;;;4964469;28;20038;-59
2021/03/01 01:18:22;;;;;;;6.80;2.22;;;;;;;;;;4965576;28;20623;-59
2021/03/01 01:21:09;;;;;;;6.43;2.13;;;;;;;;;;4964909;28;20602;-58
2021/03/01 01:23:34;;;;;;;6.85;2.60;;;;;;;;;;4965304;28;20953;-60
2021/03/01 01:26:04;;;;;;;5.72;2.20;;;;;;;;;;4968860;28;20042;-59
2021/03/01 01:28:42;;;;;;;8.00;2.20;;;;;;;;;;4966498;28;20114;-59
2021/03/01 01:31:17;;;;;;;5.45;2.08;;;;;;;;;;4968154;28;20210;-60
2021/03/01 01:33:52;;;;;;;3.50;1.02;;;;;;;;;;4966643;28;20053;-58
2021/03/01 01:36:44;;;;;;;2.83;0.80;;;;;;;;;;4959141;28;20455;-60
2021/03/01 01:39:10;;;;;;;3.50;0.77;;;;;;;;;;4961816;28;20039;-59
2021/03/01 01:41:36;;;;;;;4.32;0.93;;;;;;;;;;4974141;28;20042;-59
2021/03/01 01:44:14;;;;;;;3.72;1.00;;;;;;;;;;5007215;28;20040;-60
2021/03/01 01:46:40;;;;;;;4.40;0.90;;;;;;;;;;4995709;28;20452;-59
2021/03/01 01:49:09;;;;;;;1.35;0.50;;;;;;;;;;5031407;28;20052;-58
2021/03/01 01:51:38;;;;;;;2.15;0.60;;;;;;;;;;5035504;28;20109;-59
2021/03/01 01:54:13;;;;;;;3.28;0.60;;;;;;;;;;5015643;28;20033;-56
2021/03/01 01:56:42;;;;;;;2.55;0.80;;;;;;;;;;5024690;28;20041;-60
2021/03/01 01:59:08;;;;;;;3.75;0.55;;;;;;;;;;5031291;28;20110;-57
2021/03/01 02:01:34;;;;;;;3.80;0.60;;;;;;;;;;5032223;28;20044;-60
2021/03/01 02:04:03;;;;;;;2.40;0.68;;;;;;;;;;5029978;28;20132;-58
2021/03/01 02:06:45;;;;;;;2.28;0.70;;;;;;;;;;5034443;28;20444;-60
2021/03/01 02:09:15;;;;;;;1.77;0.52;;;;;;;;;;5032303;28;20037;-59
2021/03/01 02:11:53;;;;;;;2.20;0.77;;;;;;;;;;5034069;28;20045;-59
2021/03/01 02:14:26;;;;;;;4.95;0.85;;;;;;;;;;5032739;28;20033;-57
2021/03/01 02:16:55;;;;;;;6.28;1.15;;;;;;;;;;5031808;28;20490;-56
2021/03/01 02:19:25;;;;;;;3.20;0.70;;;;;;;;;;5032953;28;20080;-60
2021/03/01 02:22:00;;;;;;;3.67;1.02;;;;;;;;;;5033039;28;20541;-58
2021/03/01 02:24:49;;;;;;;3.83;0.70;;;;;;;;;;5027433;28;20098;-57
2021/03/01 02:27:25;;;;;;;4.38;0.65;;;;;;;;;;5012396;28;20333;-58
2021/03/01 02:29:52;;;;;;;2.53;0.70;;;;;;;;;;5014506;28;20134;-59
2021/03/01 02:32:18;;;;;;;3.08;0.90;;;;;;;;;;5012188;28;20060;-59
2021/03/01 02:34:48;;;;;;;3.83;0.80;;;;;;;;;;5009280;28;20041;-58
2021/03/01 02:37:26;;;;;;;2.65;1.38;;;;;;;;;;5020069;28;20045;-58
2021/03/01 02:39:58;;;;;;;2.00;0.70;;;;;;;;;;5028658;28;20068;-59
2021/03/01 02:42:25;;;;;;;2.88;0.63;;;;;;;;;;5012592;28;20180;-57
2021/03/01 02:44:58;;;;;;;2.50;0.70;;;;;;;;;;5013192;28;20055;-57
2021/03/01 02:47:24;;;;;;;3.53;0.80;;;;;;;;;;5020647;28;20037;-58
2021/03/01 02:49:52;;;;;;;3.15;0.60;;;;;;;;;;5030488;28;20041;-60
2021/03/01 02:52:18;;;;;;;2.58;0.80;;;;;;;;;;5004164;28;20516;-60
2021/03/01 02:54:46;;;;;;;2.50;0.60;;;;;;;;;;4977623;28;20052;-57
2021/03/01 02:57:13;;;;;;;2.22;0.70;;;;;;;;;;4984030;28;20065;-58
2021/03/01 02:59:59;;;;;;;1.80;0.50;;;;;;;;;;5010659;28;20533;-60
2021/03/01 03:02:25;;;;;;;2.22;0.70;;;;;;;;;;4984514;28;20049;-61
2021/03/01 03:04:55;;;;;;;1.85;0.50;;;;;;;;;;4989499;28;20550;-59
2021/03/01 03:07:22;;;;;;;2.30;0.70;;;;;;;;;;4993617;28;20033;-59
2021/03/01 03:09:49;;;;;;;2.38;0.70;;;;;;;;;;5011676;28;20581;-60
2021/03/01 03:12:23;;;;;;;2.75;0.68;;;;;;;;;;4964269;28;20375;-59
2021/03/01 03:14:49;;;;;;;2.42;0.70;;;;;;;;;;4981625;28;20038;-58
2021/03/01 03:17:19;;;;;;;2.15;0.60;;;;;;;;;;4979414;28;21124;-57
2021/03/01 03:19:46;;;;;;;2.92;0.80;;;;;;;;;;4989683;28;20117;-59
2021/03/01 03:22:12;;;;;;;3.08;0.80;;;;;;;;;;4997267;28;20041;-60
2021/03/01 03:24:41;;;;;;;7.95;1.80;;;;;;;;;;5007996;28;20044;-60
2021/03/01 03:27:11;;;;;;;3.40;1.20;;;;;;;;;;5009663;28;20108;-58
2021/03/01 03:29:37;;;;;;;4.60;0.90;;;;;;;;;;5010034;28;20050;-59
2021/03/01 03:32:03;;;;;;;2.58;0.75;;;;;;;;;;5008659;28;20060;-60
2021/03/01 03:34:29;;;;;;;5.25;0.77;;;;;;;;;;4985282;28;20053;-60
2021/03/01 03:37:02;;;;;;;3.58;0.70;;;;;;;;;;5026768;28;20063;-58
2021/03/01 03:39:36;;;;;;;2.30;0.70;;;;;;;;;;5028844;28;20155;-60
2021/03/01 03:42:03;;;;;;;3.13;0.60;;;;;;;;;;5015304;28;20041;-60
2021/03/01 03:44:32;;;;;;;2.65;0.80;;;;;;;;;;5029106;28;20038;-58
2021/03/01 03:46:58;;;;;;;3.28;0.68;;;;;;;;;;5029996;28;20040;-60
2021/03/01 03:49:28;;;;;;;1.52;0.50;;;;;;;;;;5022985;28;20045;-61
2021/03/01 03:51:59;;;;;;;2.78;0.70;;;;;;;;;;5026616;28;21821;-60
2021/03/01 03:54:37;;;;;;;3.60;0.60;;;;;;;;;;5003556;28;20140;-59
2021/03/01 03:57:05;;;;;;;5.38;0.70;;;;;;;;;;5028371;28;21718;-59
2021/03/01 03:59:33;;;;;;;1.05;0.45;;;;;;;;;;5019202;28;20096;-59
2021/03/01 04:01:59;;;;;;;1.63;0.50;;;;;;;;;;5031204;28;20059;-58
2021/03/01 04:04:26;;;;;;;6.93;0.70;;;;;;;;;;5031212;28;20045;-59
2021/03/01 04:06:52;;;;;;;1.58;0.50;;;;;;;;;;5033137;28;20028;-58
2021/03/01 04:09:19;;;;;;;3.03;0.65;;;;;;;;;;5030915;28;20037;-60
2021/03/01 04:11:45;;;;;;;3.20;0.60;;;;;;;;;;5031449;28;20163;-60
2021/03/01 04:14:14;;;;;;;3.20;0.60;;;;;;;;;;5030991;28;20037;-60
2021/03/01 04:16:42;;;;;;;2.10;0.60;;;;;;;;;;5030122;28;20742;-59
2021/03/01 04:19:10;;;;;;;2.97;0.45;;;;;;;;;;5031199;28;20125;-60
2021/03/01 04:21:37;;;;;;;3.13;0.70;;;;;;;;;;5031607;28;20056;-58
2021/03/01 04:24:03;;;;;;;4.25;0.60;;;;;;;;;;5030270;28;20486;-58
2021/03/01 04:26:29;;;;;;;3.30;0.70;;;;;;;;;;5032153;28;21868;-61
2021/03/01 04:28:56;;;;;;;3.10;0.60;;;;;;;;;;5031588;28;20075;-60
2021/03/01 04:31:22;;;;;;;2.95;0.65;;;;;;;;;;5030438;28;20053;-60
2021/03/01 04:33:49;;;;;;;2.75;0.60;;;;;;;;;;5030308;28;20091;-60
2021/03/01 04:36:16;;;;;;;4.55;0.60;;;;;;;;;;5033312;28;20065;-60
2021/03/01 04:38:42;;;;;;;2.50;0.50;;;;;;;;;;5030643;28;20041;-60
2021/03/01 04:41:09;;;;;;;2.47;0.60;;;;;;;;;;5032277;28;20048;-59
2021/03/01 04:43:37;;;;;;;2.20;0.60;;;;;;;;;;5030175;28;20029;-60
2021/03/01 04:46:03;;;;;;;2.05;0.65;;;;;;;;;;5032658;28;20033;-58
2021/03/01 04:48:30;;;;;;;2.47;0.80;;;;;;;;;;5031356;28;20473;-58
2021/03/01 04:50:56;;;;;;;2.65;0.60;;;;;;;;;;5032787;28;20060;-59
2021/03/01 04:53:23;;;;;;;4.93;0.50;;;;;;;;;;5029677;28;20064;-60
2021/03/01 04:55:49;;;;;;;2.33;0.50;;;;;;;;;;5030952;28;20094;-61
2021/03/01 04:58:16;;;;;;;3.20;0.60;;;;;;;;;;5035241;28;20037;-59
2021/03/01 05:00:43;;;;;;;3.35;0.70;;;;;;;;;;5035422;28;20063;-60
2021/03/01 05:03:09;;;;;;;2.88;0.60;;;;;;;;;;5038146;28;20029;-60
2021/03/01 05:05:35;;;;;;;3.08;1.10;;;;;;;;;;5037769;28;20463;-60
2021/03/01 05:08:05;;;;;;;2.72;0.80;;;;;;;;;;5038011;28;20049;-59
2021/03/01 05:10:32;;;;;;;4.05;0.88;;;;;;;;;;5037461;28;20057;-59
2021/03/01 05:12:58;;;;;;;2.35;0.68;;;;;;;;;;5036695;28;20033;-59
2021/03/01 05:15:24;;;;;;;1.92;0.60;;;;;;;;;;5035952;28;20037;-58
2021/03/01 05:17:50;;;;;;;2.28;0.60;;;;;;;;;;5035407;28;20040;-60
2021/03/01 05:20:16;;;;;;;2.47;0.70;;;;;;;;;;5038604;28;20052;-60
2021/03/01 05:22:42;;;;;;;1.83;0.50;;;;;;;;;;5038560;28;20095;-59
2021/03/01 05:25:08;;;;;;;5.28;0.80;;;;;;;;;;5038864;28;20063;-60
2021/03/01 05:27:35;;;;;;;3.35;0.80;;;;;;;;;;5036376;28;20083;-59
2021/03/01 05:30:04;;;;;;;4.07;0.73;;;;;;;;;;5038925;28;20045;-60
2021/03/01 05:32:30;;;;;;;2.30;0.60;;;;;;;;;;5036926;28;20037;-58
2021/03/01 05:34:56;;;;;;;1.80;0.50;;;;;;;;;;5037929;28;20038;-58
2021/03/01 05:37:22;;;;;;;3.83;0.50;;;;;;;;;;5039832;28;20672;-56
2021/03/01 05:39:48;;;;;;;2.75;0.68;;;;;;;;;;5041204;28;20056;-59
2021/03/01 05:42:16;;;;;;;6.43;0.70;;;;;;;;;;5037468;28;20048;-60
2021/03/01 05:44:42;;;;;;;2.33;0.70;;;;;;;;;;5037367;28;20044;-59
2021/03/01 05:47:11;;;;;;;2.28;0.60;;;;;;;;;;5035943;28;20343;-59
2021/03/01 05:49:38;;;;;;;2.30;0.50;;;;;;;;;;5036091;28;20061;-59
2021/03/01 05:52:04;;;;;;;4.55;0.57;;;;;;;;;;5037254;28;20033;-60
2021/03/01 05:54:32;;;;;;;1.95;0.55;;;;;;;;;;5035540;28;20053;-58
2021/03/01 05:56:58;;;;;;;2.78;0.60;;;;;;;;;;5033767;28;21226;-58
2021/03/01 05:59:25;;;;;;;2.40;0.60;;;;;;;;;;5037837;28;20040;-59
2021/03/01 06:01:51;;;;;;;2.47;0.60;;;;;;;;;;5035114;28;20045;-59
2021/03/01 06:04:17;;;;;;;1.95;0.47;;;;;;;;;;5034185;28;20064;-59
2021/03/01 06:06:43;;;;;;;3.13;0.77;;;;;;;;;;5034588;28;20136;-59
2021/03/01 06:09:09;;;;;;;2.10;0.60;;;;;;;;;;5029964;28;20045;-59
2021/03/01 06:11:35;;;;;;;2.05;0.70;;;;;;;;;;5033907;28;20040;-58
2021/03/01 06:14:04;;;;;;;3.55;1.05;;;;;;;;;;5034235;28;20061;-57
2021/03/01 06:16:30;;;;;;;2.20;0.60;;;;;;;;;;5035516;28;20520;-58
2021/03/01 06:18:56;;;;;;;2.13;0.70;;;;;;;;;;5036586;28;20044;-58
2021/03/01 06:21:22;;;;;;;2.65;0.70;;;;;;;;;;5036394;28;20398;-59
2021/03/01 06:23:48;;;;;;;3.72;0.70;;;;;;;;;;5035704;28;20041;-59
2021/03/01 06:26:25;;;;;;;2.67;0.90;;;;;;;;;;5038415;28;20139;-58
2021/03/01 06:28:54;;;;;;;2.63;0.77;;;;;;;;;;5035828;28;21917;-60
2021/03/01 06:31:38;;;;;;;3.05;0.70;;;;;;;;;;5035465;28;20063;-59
2021/03/01 06:34:19;;;;;;;2.42;0.60;;;;;;;;;;5036619;28;20582;-60
2021/03/01 06:36:57;;;;;;;2.10;0.60;;;;;;;;;;5036131;28;20037;-60
2021/03/01 06:39:24;;;;;;;2.35;0.60;;;;;;;;;;5035004;28;20037;-60
2021/03/01 06:41:53;;;;;;;2.83;0.60;;;;;;;;;;5034488;28;20371;-59
2021/03/01 06:44:18;;;;;;;2.42;0.60;;;;;;;;;;5033861;28;20041;-59
2021/03/01 06:46:53;;;;;;;1.60;0.40;;;;;;;;;;5036282;28;20095;-59
2021/03/01 06:49:20;;;;;;;2.25;0.60;;;;;;;;;;5033640;28;20415;-59
2021/03/01 06:51:47;;;;;;;1.70;0.50;;;;;;;;;;5034344;28;20400;-60
2021/03/01 06:54:26;;;;;;;2.60;0.68;;;;;;;;;;5033728;28;20035;-60
2021/03/01 06:56:52;;;;;;;1.90;0.50;;;;;;;;;;5033906;28;20056;-58
2021/03/01 06:59:19;;;;;;;1.52;0.40;;;;;;;;;;5025843;28;20394;-60
2021/03/01 07:01:44;;;;;;;0.65;0.40;;;;;;;;;;5033947;28;20087;-58
2021/03/01 07:04:17;;;;;;;1.83;0.50;;;;;;;;;;5026401;28;20087;-59
2021/03/01 07:06:43;;;;;;;1.60;0.73;;;;;;;;;;5034570;28;20044;-59
2021/03/01 07:09:16;;;;;;;1.98;0.50;;;;;;;;;;5033549;28;20086;-56
2021/03/01 07:11:42;;;;;;;1.50;0.50;;;;;;;;;;5032087;28;20041;-56
2021/03/01 07:14:10;;;;;;;5.28;0.50;;;;;;;;;;5033230;28;20559;-59
2021/03/01 07:16:44;;;;;;;2.00;0.65;;;;;;;;;;5019068;28;20824;-59
2021/03/01 07:19:14;;;;;;;1.52;0.50;;;;;;;;;;5043041;28;20037;-59
2021/03/01 07:21:40;;;;;;;1.75;0.60;;;;;;;;;;5031181;28;20140;-58
2021/03/01 07:24:07;;;;;;;1.33;0.50;;;;;;;;;;5031764;28;20036;-57
2021/03/01 07:26:33;;;;;;;1.48;0.50;;;;;;;;;;5042271;28;20056;-56
2021/03/01 07:29:08;;;;;;;1.77;0.50;;;;;;;;;;5030509;28;20462;-58
2021/03/01 07:31:35;;;;;;;2.10;0.55;;;;;;;;;;5033474;28;20076;-59
2021/03/01 07:34:03;;;;;;;2.30;0.50;;;;;;;;;;5033584;28;20029;-59
2021/03/01 07:36:29;;;;;;;1.70;0.50;;;;;;;;;;5033438;28;20973;-60
2021/03/01 07:38:57;;;;;;;1.52;0.50;;;;;;;;;;5034190;28;20045;-59
2021/03/01 07:41:23;;;;;;;1.85;0.50;;;;;;;;;;5030548;28;20064;-59
2021/03/01 07:43:49;;;;;;;2.22;0.60;;;;;;;;;;5032323;28;20128;-59
2021/03/01 07:46:15;;;;;;;1.45;0.50;;;;;;;;;;5032275;28;20561;-58
2021/03/01 07:48:42;;;;;;;3.75;0.55;;;;;;;;;;5033217;28;20036;-59
2021/03/01 07:51:09;;;;;;;1.63;0.50;;;;;;;;;;5032234;28;20140;-59
2021/03/01 07:53:49;;;;;;;1.88;0.60;;;;;;;;;;5030572;28;20056;-58
2021/03/01 07:56:24;;;;;;;1.20;0.40;;;;;;;;;;5033142;28;20127;-59
2021/03/01 07:59:09;;;;;;;4.97;0.70;;;;;;;;;;5031707;28;20060;-58
2021/03/01 08:01:35;;;;;;;1.58;0.50;;;;;;;;;;5032818;28;20033;-59
2021/03/01 08:04:01;;;;;;;1.55;0.50;;;;;;;;;;5032191;28;20029;-58
2021/03/01 08:06:46;;;;;;;1.65;0.50;;;;;;;;;;5032335;28;20087;-58
2021/03/01 08:09:12;;;;;;;1.90;0.60;;;;;;;;;;5032934;28;20095;-59
2021/03/01 08:11:38;;;;;;;1.83;0.50;;;;;;;;;;5032272;28;20468;-60
2021/03/01 08:14:11;;;;;;;1.52;0.50;;;;;;;;;;5032829;28;20041;-61
2021/03/01 08:16:38;;;;;;;2.42;0.50;;;;;;;;;;5032448;28;20037;-59
2021/03/01 08:19:04;;;;;;;2.30;0.60;;;;;;;;;;5032074;28;20033;-61
2021/03/01 08:21:52;;;;;;;2.20;0.60;;;;;;;;;;5032979;28;20630;-60
2021/03/01 08:24:51;;;;;;;1.50;0.50;;;;;;;;;;5026793;28;20037;-61
2021/03/01 08:27:26;;;;;;;1.45;0.50;;;;;;;;;;5008579;28;20511;-60
2021/03/01 08:30:10;;;;;;;1.77;0.60;;;;;;;;;;5031364;28;20057;-61
2021/03/01 08:32:36;;;;;;;1.98;0.60;;;;;;;;;;5038442;28;20040;-60
2021/03/01 08:35:20;;;;;;;1.60;0.52;;;;;;;;;;5039146;28;20033;-60
2021/03/01 08:37:46;;;;;;;2.00;0.80;;;;;;;;;;5039263;28;21943;-61
2021/03/01 08:40:18;;;;;;;2.90;0.47;;;;;;;;;;5039723;28;20051;-61
2021/03/01 08:42:51;;;;;;;3.47;0.60;;;;;;;;;;5038661;28;20538;-60
2021/03/01 08:45:21;;;;;;;1.98;0.50;;;;;;;;;;5035833;28;20052;-60
2021/03/01 08:47:51;;;;;;;2.10;0.55;;;;;;;;;;5037802;28;20059;-59
2021/03/01 08:50:22;;;;;;;1.95;0.60;;;;;;;;;;5038505;28;20323;-58
2021/03/01 08:52:48;;;;;;;2.78;0.57;;;;;;;;;;5039759;28;20033;-60
2021/03/01 08:55:16;;;;;;;3.08;0.60;;;;;;;;;;5038392;28;20535;-60
2021/03/01 08:57:54;;;;;;;1.73;0.63;;;;;;;;;;5038538;28;20048;-60
2021/03/01 09:00:21;;;;;;;1.75;0.52;;;;;;;;;;5037409;28;20236;-60
2021/03/01 09:02:46;;;;;;;1.95;0.60;;;;;;;;;;5038451;28;20095;-60
2021/03/01 09:05:16;;;;;;;1.48;0.50;;;;;;;;;;5038670;28;20119;-60
2021/03/01 09:07:45;;;;;;;2.03;0.60;;;;;;;;;;5038529;28;20068;-60
2021/03/01 09:10:12;;;;;;;2.13;0.60;;;;;;;;;;5039455;28;20094;-60
2021/03/01 09:12:38;;;;;;;1.60;0.47;;;;;;;;;;5036596;28;20520;-60
2021/03/01 09:15:07;;;;;;;1.80;0.55;;;;;;;;;;5039340;28;20059;-60
2021/03/01 09:17:33;;;;;;;1.63;0.57;;;;;;;;;;5037335;28;22735;-59
2021/03/01 09:19:59;;;;;;;1.73;0.50;;;;;;;;;;5037375;28;20151;-60
2021/03/01 09:22:25;;;;;;;2.83;0.63;;;;;;;;;;5037095;28;20041;-60
2021/03/01 09:24:51;;;;;;;2.20;0.63;;;;;;;;;;5039234;28;20433;-58
2021/03/01 09:27:32;;;;;;;2.58;0.60;;;;;;;;;;5037856;28;20040;-60
2021/03/01 09:30:02;;;;;;;2.58;0.60;;;;;;;;;;5038040;28;20088;-60
2021/03/01 09:32:28;;;;;;;1.85;0.63;;;;;;;;;;5037636;28;21057;-59
2021/03/01 09:34:54;;;;;;;2.20;0.60;;;;;;;;;;5037443;28;20038;-61
2021/03/01 09:37:22;;;;;;;2.60;0.90;;;;;;;;;;5037431;28;20041;-59
2021/03/01 09:39:48;;;;;;;3.08;0.80;;;;;;;;;;5039400;28;20135;-59
2021/03/01 09:42:17;;;;;;;2.03;0.68;;;;;;;;;;5036883;28;20090;-60
2021/03/01 09:44:44;;;;;;;2.50;0.75;;;;;;;;;;5035076;28;20048;-59
2021/03/01 09:47:11;;;;;;;3.70;0.80;;;;;;;;;;5037072;28;20099;-59
2021/03/01 09:49:39;;;;;;;4.47;0.68;;;;;;;;;;5038719;28;20045;-59
2021/03/01 09:52:05;;;;;;;3.60;0.80;;;;;;;;;;5036356;28;20076;-59
2021/03/01 09:54:31;;;;;;;2.13;0.60;;;;;;;;;;5033288;28;20064;-58
2021/03/01 09:57:03;;;;;;;2.70;0.75;;;;;;;;;;5036478;28;21045;-59
2021/03/01 09:59:33;;;;;;;2.17;0.68;;;;;;;;;;5038600;28;20044;-60
2021/03/01 10:02:12;;;;;;;2.03;0.50;;;;;;;;;;5037847;28;20041;-62
2021/03/01 10:04:38;;;;;;;2.05;0.50;;;;;;;;;;5036011;28;20401;-58
2021/03/01 10:07:23;;;;;;;2.17;0.60;;;;;;;;;;5047911;28;20041;-60
2021/03/01 10:09:49;;;;;;;2.03;0.60;;;;;;;;;;5034190;28;20083;-58
2021/03/01 10:12:15;;;;;;;2.85;0.70;;;;;;;;;;5034380;28;20165;-58
2021/03/01 10:14:42;;;;;;;2.53;0.68;;;;;;;;;;5033807;28;20923;-60
2021/03/01 10:17:17;;;;;;;3.10;0.60;;;;;;;;;;5033715;28;20045;-59
2021/03/01 10:19:44;;;;;;;3.05;0.60;;;;;;;;;;5033323;28;20503;-59
2021/03/01 10:22:10;;;;;;;1.67;0.50;;;;;;;;;;5033411;28;20076;-58
2021/03/01 10:24:43;;;;;;;2.00;0.60;;;;;;;;;;5033567;28;20072;-59
2021/03/01 10:27:09;;;;;;;3.37;0.70;;;;;;;;;;5034237;28;20041;-56
2021/03/01 10:29:36;;;;;;;2.17;0.60;;;;;;;;;;5034510;28;20136;-59
2021/03/01 10:32:03;;;;;;;2.70;0.63;;;;;;;;;;5033767;28;20048;-59
2021/03/01 10:34:29;;;;;;;2.03;0.52;;;;;;;;;;5033343;28;20414;-59
2021/03/01 10:36:57;;;;;;;1.85;0.60;;;;;;;;;;5027293;28;20503;-59
2021/03/01 10:39:24;;;;;;;3.28;0.60;;;;;;;;;;5033163;28;20059;-60
2021/03/01 10:41:52;;;;;;;2.10;0.60;;;;;;;;;;5033309;28;20080;-60
2021/03/01 10:44:26;;;;;;;2.38;0.60;;;;;;;;;;5032292;28;20088;-60
2021/03/01 10:46:52;;;;;;;1.65;0.50;;;;;;;;;;5034623;28;20041;-58
2021/03/01 10:49:24;;;;;;;2.60;0.70;;;;;;;;;;5032169;28;20072;-59
2021/03/01 10:51:51;;;;;;;1.92;0.60;;;;;;;;;;5034044;28;20057;-59
2021/03/01 10:54:17;;;;;;;1.77;0.52;;;;;;;;;;5033555;28;20043;-60
2021/03/01 10:56:43;;;;;;;2.13;0.63;;;;;;;;;;5034415;28;20048;-59
2021/03/01 10:59:09;;;;;;;2.13;0.60;;;;;;;;;;5032838;28;20036;-60
2021/03/01 11:01:35;;;;;;;2.47;0.65;;;;;;;;;;5033453;28;20180;-60
2021/03/01 11:04:02;;;;;;;2.20;0.63;;;;;;;;;;5033580;28;20442;-59
2021/03/01 11:06:28;;;;;;;2.45;0.60;;;;;;;;;;5033960;28;20800;-61
2021/03/01 11:08:54;;;;;;;3.50;0.63;;;;;;;;;;5035116;28;20044;-60
2021/03/01 11:11:20;;;;;;;5.22;0.70;;;;;;;;;;5034026;28;20044;-59
2021/03/01 11:13:46;;;;;;;2.17;0.60;;;;;;;;;;5032048;28;20092;-59
2021/03/01 11:16:11;;;;;;;2.58;0.63;;;;;;;;;;5032939;28;20033;-60
2021/03/01 11:18:37;;;;;;;2.83;0.80;;;;;;;;;;5032696;28;20105;-60
2021/03/01 11:21:03;;;;;;;2.00;0.60;;;;;;;;;;5033889;28;20362;-60
2021/03/01 11:23:29;;;;;;;2.80;0.60;;;;;;;;;;5031782;28;20037;-58
2021/03/01 11:25:55;;;;;;;1.70;0.50;;;;;;;;;;5032421;28;20045;-59
2021/03/01 11:28:21;;;;;;;2.17;0.60;;;;;;;;;;5031532;28;20037;-58
2021/03/01 11:30:47;;;;;;;3.25;0.70;;;;;;;;;;5031622;28;20083;-56
2021/03/01 11:33:13;;;;;;;2.30;0.70;;;;;;;;;;5031358;28;20040;-59
2021/03/01 11:35:39;;;;;;;2.42;0.73;;;;;;;;;;5031168;28;20041;-58
2021/03/01 11:38:05;;;;;;;2.30;0.65;;;;;;;;;;5029584;28;20127;-59
2021/03/01 11:40:31;;;;;;;2.33;0.70;;;;;;;;;;5032581;28;20056;-56
2021/03/01 11:42:57;;;;;;;2.05;0.60;;;;;;;;;;5031000;28;20901;-57
2021/03/01 11:45:23;;;;;;;2.50;0.70;;;;;;;;;;5031552;28;20037;-58
2021/03/01 11:47:49;;;;;;;2.40;0.70;;;;;;;;;;5032066;28;20051;-59
2021/03/01 11:50:16;;;;;;;3.00;0.88;;;;;;;;;;5024727;28;20862;-57
2021/03/01 11:52:42;;;;;;;2.92;0.77;;;;;;;;;;5017024;28;20153;-58
2021/03/01 11:55:08;;;;;;;2.10;0.60;;;;;;;;;;5016787;28;20475;-59
2021/03/01 11:57:34;;;;;;;2.40;0.70;;;;;;;;;;4998034;28;20033;-58
2021/03/01 12:00:00;;;;;;;2.25;0.60;;;;;;;;;;5016572;28;20852;-59
2021/03/01 12:02:26;;;;;;;2.50;0.60;;;;;;;;;;5014440;28;20045;-58
2021/03/01 12:04:51;;;;;;;2.58;0.60;;;;;;;;;;5019462;28;20049;-59
2021/03/01 12:07:17;;;;;;;2.30;0.60;;;;;;;;;;5014826;28;20110;-58
2021/03/01 12:09:43;;;;;;;2.28;0.60;;;;;;;;;;5015772;28;20049;-59
2021/03/01 12:12:09;;;;;;;3.05;0.82;;;;;;;;;;5015647;28;20046;-59
2021/03/01 12:14:35;;;;;;;2.55;0.73;;;;;;;;;;5015962;28;20038;-59
2021/03/01 12:17:01;;;;;;;1.92;0.60;;;;;;;;;;5017417;28;20413;-59
2021/03/01 12:19:27;;;;;;;2.58;0.70;;;;;;;;;;5012241;28;20552;-59
2021/03/01 12:21:53;;;;;;;1.63;0.50;;;;;;;;;;5015182;28;20037;-59
2021/03/01 12:24:19;;;;;;;2.58;0.90;;;;;;;;;;5015697;28;20068;-59
2021/03/01 12:26:45;;;;;;;2.55;0.70;;;;;;;;;;5016570;28;20048;-58
2021/03/01 12:29:11;;;;;;;2.88;0.60;;;;;;;;;;5017885;28;22095;-58
2021/03/01 12:31:37;;;;;;;2.38;0.70;;;;;;;;;;5013789;28;20149;-59
2021/03/01 12:34:03;;;;;;;2.90;0.80;;;;;;;;;;5016100;28;20069;-59
2021/03/01 12:36:29;;;;;;;3.10;0.75;;;;;;;;;;5015644;28;20030;-56
2021/03/01 12:38:55;;;;;;;2.15;0.80;;;;;;;;;;5018604;28;20466;-59
2021/03/01 12:41:21;;;;;;;3.10;0.80;;;;;;;;;;5015402;28;20038;-58
2021/03/01 12:43:47;;;;;;;3.85;0.80;;;;;;;;;;5015905;28;20034;-59
2021/03/01 12:46:13;;;;;;;2.75;0.85;;;;;;;;;;5015738;28;20046;-59
2021/03/01 12:48:40;;;;;;;3.97;0.70;;;;;;;;;;5014421;28;20038;-59
2021/03/01 12:51:05;;;;;;;2.90;0.80;;;;;;;;;;5010038;28;20050;-60
2021/03/01 12:53:31;;;;;;;2.90;0.82;;;;;;;;;;5009965;28;20061;-57
2021/03/01 12:55:57;;;;;;;3.33;1.20;;;;;;;;;;5012032;28;20045;-58
2021/03/01 12:58:23;;;;;;;4.68;0.70;;;;;;;;;;5009974;28;20033;-58
2021/03/01 13:00:49;;;;;;;4.55;0.70;;;;;;;;;;5011493;28;20152;-58
2021/03/01 13:03:15;;;;;;;3.25;0.80;;;;;;;;;;5011365;28;20061;-58
2021/03/01 13:05:41;;;;;;;4.53;0.80;;;;;;;;;;5010715;28;20041;-57
2021/03/01 13:08:07;;;;;;;2.08;0.77;;;;;;;;;;5010320;28;20043;-57
2021/03/01 13:10:33;;;;;;;6.65;0.77;;;;;;;;;;5007287;28;20046;-57
2021/03/01 13:12:59;;;;;;;1.75;0.60;;;;;;;;;;5009572;28;20037;-58
2021/03/01 13:15:25;;;;;;;2.80;0.90;;;;;;;;;;5009921;28;20048;-58
2021/03/01 13:17:51;;;;;;;2.88;0.77;;;;;;;;;;5011862;28;20041;-59
2021/03/01 13:20:17;;;;;;;3.45;0.80;;;;;;;;;;5013936;28;20053;-58
2021/03/01 13:22:43;;;;;;;3.70;1.00;;;;;;;;;;5015117;28;20057;-56
2021/03/01 13:25:09;;;;;;;3.22;0.98;;;;;;;;;;5014084;28;20048;-58
2021/03/01 13:27:35;;;;;;;4.30;0.80;;;;;;;;;;5012792;28;20037;-56
2021/03/01 13:30:02;;;;;;;3.85;0.93;;;;;;;;;;5014888;28;20722;-57
2021/03/01 13:32:28;;;;;;;3.08;0.75;;;;;;;;;;5012787;28;20045;-57
2021/03/01 13:34:55;;;;;;;4.70;0.90;;;;;;;;;;5014659;28;20168;-57
2021/03/01 13:37:21;;;;;;;2.40;0.80;;;;;;;;;;5013440;28;20095;-57
2021/03/01 13:39:47;;;;;;;4.00;1.10;;;;;;;;;;5013582;28;20146;-58
2021/03/01 13:42:12;;;;;;;2.25;0.70;;;;;;;;;;5014959;28;20033;-58
2021/03/01 13:44:38;;;;;;;2.70;0.77;;;;;;;;;;5014283;28;20033;-57
2021/03/01 13:47:04;;;;;;;3.40;0.90;;;;;;;;;;5012832;28;20060;-56
2021/03/01 13:49:30;;;;;;;3.63;0.80;;;;;;;;;;5018643;28;20134;-57
2021/03/01 13:51:56;;;;;;;2.80;0.90;;;;;;;;;;5035276;28;20041;-57
2021/03/01 13:54:22;;;;;;;4.25;0.80;;;;;;;;;;5033981;28;20037;-57
2021/03/01 13:56:49;;;;;;;3.00;0.82;;;;;;;;;;5034844;28;20052;-56
2021/03/01 13:59:14;;;;;;;4.15;1.10;;;;;;;;;;5034987;28;20392;-58
2021/03/01 14:01:40;;;;;;;3.08;1.00;;;;;;;;;;5035488;28;20041;-56
2021/03/01 14:04:06;;;;;;;5.60;1.10;;;;;;;;;;5035412;28;20033;-57
2021/03/01 14:06:32;;;;;;;3.72;0.70;;;;;;;;;;5018032;28;20037;-59
2021/03/01 14:08:58;;;;;;;7.45;0.80;;;;;;;;;;5036128;28;20052;-58
2021/03/01 14:11:24;;;;;;;2.60;0.77;;;;;;;;;;5034226;28;20049;-58
2021/03/01 14:13:51;;;;;;;2.70;0.80;;;;;;;;;;5012017;28;20072;-57
2021/03/01 14:16:18;;;;;;;2.40;0.70;;;;;;;;;;5034940;28;20051;-56
2021/03/01 14:18:44;;;;;;;3.13;0.90;;;;;;;;;;5034926;28;20045;-52
2021/03/01 14:21:10;;;;;;;10.07;1.13;;;;;;;;;;5034568;28;20404;-55
2021/03/01 14:23:36;;;;;;;2.55;0.80;;;;;;;;;;5033745;28;20374;-56
2021/03/01 14:26:02;;;;;;;4.25;1.13;;;;;;;;;;5034315;28;20040;-58
2021/03/01 14:28:28;;;;;;;4.22;1.00;;;;;;;;;;5033241;28;20367;-56
2021/03/01 14:30:54;;;;;;;3.80;0.90;;;;;;;;;;5032970;28;20053;-56
2021/03/01 14:33:20;;;;;;;3.25;0.80;;;;;;;;;;5033515;28;20064;-56
2021/03/01 14:35:47;;;;;;;3.53;1.02;;;;;;;;;;5034133;28;20037;-57
2021/03/01 14:38:13;;;;;;;3.38;1.00;;;;;;;;;;5035089;28;20044;-58
2021/03/01 14:40:39;;;;;;;3.17;1.02;;;;;;;;;;5032617;28;20648;-58
2021/03/01 14:43:05;;;;;;;3.15;0.98;;;;;;;;;;5034798;28;20037;-55
2021/03/01 14:45:31;;;;;;;3.95;1.02;;;;;;;;;;5032710;28;20045;-58
2021/03/01 14:47:57;;;;;;;3.88;0.90;;;;;;;;;;5035555;28;20100;-56
2021/03/01 14:50:23;;;;;;;7.00;1.20;;;;;;;;;;5032884;28;20171;-58
2021/03/01 14:52:49;;;;;;;3.65;1.30;;;;;;;;;;5034525;28;20056;-57